Time;durP1;ratioP1;P1;durP2;ratioP2;P2;SDS_P1;SDS_P2;PMS_P1;PMS_P2;Temp;Humidity;BMP_temperature;BMP_pressure;BME280_temperature;BME280_humidity;BME280_pressure;Samples;Min_cycle;Max_cycle;Signal;HPM_P1;HPM_P2
2023/07/09 00:01:19;;;;;;;3.78;2.00;;;;;;;;;;4993922;28;20391;-61
2023/07/09 00:03:51;;;;;;;2.83;1.73;;;;;;;;;;4992552;28;20034;-61
2023/07/09 00:06:18;;;;;;;4.22;2.05;;;;;;;;;;4993409;28;20034;-61
2023/07/09 00:08:47;;;;;;;2.95;1.70;;;;;;;;;;4993538;28;20031;-62
2023/07/09 00:11:15;;;;;;;4.03;2.10;;;;;;;;;;4993474;28;20034;-61
2023/07/09 00:13:42;;;;;;;3.92;2.10;;;;;;;;;;4993431;28;20037;-61
2023/07/09 00:16:36;;;;;;;3.28;1.95;;;;;;;;;;4993268;28;20065;-62
2023/07/09 00:19:04;;;;;;;3.05;1.90;;;;;;;;;;4991244;28;20046;-61
2023/07/09 00:21:33;;;;;;;3.28;1.92;;;;;;;;;;4993377;28;20035;-61
2023/07/09 00:24:04;;;;;;;3.05;1.80;;;;;;;;;;4993134;28;20124;-61
2023/07/09 00:26:34;;;;;;;3.20;1.77;;;;;;;;;;4993380;28;20034;-61
2023/07/09 00:29:01;;;;;;;3.85;1.80;;;;;;;;;;4993064;28;20176;-61
2023/07/09 00:31:28;;;;;;;4.63;1.80;;;;;;;;;;4975618;28;20027;-61
2023/07/09 00:34:00;;;;;;;3.20;1.80;;;;;;;;;;4993126;28;20120;-61
2023/07/09 00:36:28;;;;;;;3.47;1.93;;;;;;;;;;4992989;28;20081;-61
2023/07/09 00:38:59;;;;;;;2.80;1.92;;;;;;;;;;4992993;28;20040;-61
2023/07/09 00:41:28;;;;;;;3.55;1.63;;;;;;;;;;4992959;28;20022;-61
2023/07/09 00:43:55;;;;;;;2.42;1.90;;;;;;;;;;4992924;28;20673;-61
2023/07/09 00:46:26;;;;;;;3.33;2.13;;;;;;;;;;4992818;28;20050;-62
2023/07/09 00:48:57;;;;;;;2.97;1.90;;;;;;;;;;4992788;28;20035;-61
2023/07/09 00:51:26;;;;;;;3.92;2.10;;;;;;;;;;4992817;28;20372;-61
2023/07/09 00:53:54;;;;;;;2.47;1.85;;;;;;;;;;4992771;28;20042;-61
2023/07/09 00:56:33;;;;;;;3.25;1.92;;;;;;;;;;4992949;28;20033;-61
2023/07/09 00:59:04;;;;;;;4.45;2.20;;;;;;;;;;4992509;28;20050;-61
2023/07/09 01:01:32;;;;;;;3.80;2.38;;;;;;;;;;4992556;28;20109;-61
2023/07/09 01:04:00;;;;;;;3.42;2.03;;;;;;;;;;4974988;28;20439;-61
2023/07/09 01:06:54;;;;;;;4.32;2.17;;;;;;;;;;4992555;28;20037;-61
2023/07/09 01:09:22;;;;;;;2.60;1.70;;;;;;;;;;4990330;28;20070;-61
2023/07/09 01:11:49;;;;;;;3.40;2.35;;;;;;;;;;4992404;28;20412;-61
2023/07/09 01:14:19;;;;;;;4.70;2.45;;;;;;;;;;4992191;28;20188;-61
2023/07/09 01:16:59;;;;;;;3.17;2.10;;;;;;;;;;4992307;28;20034;-61
2023/07/09 01:19:28;;;;;;;3.42;2.20;;;;;;;;;;4992669;28;20481;-61
2023/07/09 01:21:59;;;;;;;3.63;2.17;;;;;;;;;;4992260;28;20030;-60
2023/07/09 01:24:47;;;;;;;3.40;2.17;;;;;;;;;;4992159;28;20112;-60
2023/07/09 01:27:14;;;;;;;3.50;2.30;;;;;;;;;;4992373;28;20041;-61
2023/07/09 01:29:42;;;;;;;4.25;2.53;;;;;;;;;;4992201;28;20384;-61
2023/07/09 01:32:10;;;;;;;4.15;2.25;;;;;;;;;;4974775;28;20443;-61
2023/07/09 01:34:37;;;;;;;3.65;2.22;;;;;;;;;;4992181;28;20039;-61
2023/07/09 01:37:04;;;;;;;3.97;2.33;;;;;;;;;;4992162;28;20121;-62
2023/07/09 01:39:31;;;;;;;3.42;2.10;;;;;;;;;;4992191;28;20023;-61
2023/07/09 01:41:58;;;;;;;2.88;2.17;;;;;;;;;;4992279;28;20030;-61
2023/07/09 01:44:29;;;;;;;4.28;2.25;;;;;;;;;;4992170;28;20408;-60
2023/07/09 01:46:56;;;;;;;2.75;2.13;;;;;;;;;;4992038;28;20439;-61
2023/07/09 01:49:26;;;;;;;3.58;2.28;;;;;;;;;;4992227;28;20038;-62
2023/07/09 01:51:54;;;;;;;4.63;2.35;;;;;;;;;;4991967;28;20038;-61
2023/07/09 01:54:21;;;;;;;3.10;2.28;;;;;;;;;;4992112;28;20042;-61
2023/07/09 01:56:48;;;;;;;3.20;2.45;;;;;;;;;;4991854;28;20443;-61
2023/07/09 01:59:15;;;;;;;2.88;2.13;;;;;;;;;;4992098;28;20388;-62
2023/07/09 02:01:42;;;;;;;2.92;2.13;;;;;;;;;;4992063;28;20104;-61
2023/07/09 02:04:09;;;;;;;2.75;2.17;;;;;;;;;;4992010;28;20030;-60
2023/07/09 02:06:36;;;;;;;3.33;2.20;;;;;;;;;;4991975;28;20026;-61
2023/07/09 02:09:03;;;;;;;3.45;2.35;;;;;;;;;;4974536;28;20447;-61
2023/07/09 02:11:30;;;;;;;4.38;2.28;;;;;;;;;;4992005;28;20029;-61
2023/07/09 02:13:57;;;;;;;3.55;2.40;;;;;;;;;;4991868;28;20121;-62
2023/07/09 02:16:24;;;;;;;3.35;2.33;;;;;;;;;;4991855;28;20026;-61
2023/07/09 02:18:51;;;;;;;3.05;2.33;;;;;;;;;;4991864;28;20439;-61
2023/07/09 02:21:18;;;;;;;3.72;2.55;;;;;;;;;;4991905;28;20029;-61
2023/07/09 02:23:45;;;;;;;3.10;2.50;;;;;;;;;;4974228;28;20108;-61
2023/07/09 02:26:12;;;;;;;4.03;2.45;;;;;;;;;;4992639;28;20022;-61
2023/07/09 02:28:39;;;;;;;2.85;2.33;;;;;;;;;;4995448;28;20404;-61
2023/07/09 02:31:07;;;;;;;4.05;2.47;;;;;;;;;;4995453;28;20019;-61
2023/07/09 02:33:35;;;;;;;4.63;3.00;;;;;;;;;;4995414;28;20480;-61
2023/07/09 02:36:02;;;;;;;3.50;2.50;;;;;;;;;;4995215;28;20481;-60
2023/07/09 02:38:29;;;;;;;4.40;2.25;;;;;;;;;;4995308;28;20022;-61
2023/07/09 02:40:57;;;;;;;3.88;2.63;;;;;;;;;;4995234;28;20058;-62
2023/07/09 02:43:24;;;;;;;3.58;2.28;;;;;;;;;;4995170;28;20650;-61
2023/07/09 02:45:51;;;;;;;3.65;2.33;;;;;;;;;;4995091;28;20519;-61
2023/07/09 02:48:18;;;;;;;3.75;2.38;;;;;;;;;;4995077;28;20030;-61
2023/07/09 02:50:45;;;;;;;3.10;2.20;;;;;;;;;;4995126;28;20072;-61
2023/07/09 02:53:12;;;;;;;4.25;2.58;;;;;;;;;;4995067;28;20042;-61
2023/07/09 02:55:39;;;;;;;3.60;2.55;;;;;;;;;;4994899;28;20108;-61
2023/07/09 02:58:06;;;;;;;3.35;2.30;;;;;;;;;;4994657;28;20393;-61
2023/07/09 03:00:33;;;;;;;3.45;2.17;;;;;;;;;;4994831;28;20030;-61
2023/07/09 03:03:00;;;;;;;3.75;2.20;;;;;;;;;;4994816;28;20117;-61
2023/07/09 03:05:27;;;;;;;4.85;2.60;;;;;;;;;;4994649;28;20034;-62
2023/07/09 03:07:54;;;;;;;3.40;2.55;;;;;;;;;;4994741;28;20031;-61
2023/07/09 03:10:21;;;;;;;3.90;2.78;;;;;;;;;;4994717;28;20037;-61
2023/07/09 03:12:48;;;;;;;3.42;2.22;;;;;;;;;;4994650;28;20496;-61
2023/07/09 03:15:15;;;;;;;5.50;2.85;;;;;;;;;;4994486;28;20038;-61
2023/07/09 03:17:42;;;;;;;3.55;2.30;;;;;;;;;;4994545;28;20034;-61
2023/07/09 03:20:09;;;;;;;3.35;2.05;;;;;;;;;;4994530;28;20362;-61
2023/07/09 03:22:36;;;;;;;3.72;2.33;;;;;;;;;;4994433;28;20067;-61
2023/07/09 03:25:03;;;;;;;4.05;2.70;;;;;;;;;;4994270;28;20039;-61
2023/07/09 03:27:31;;;;;;;3.17;2.28;;;;;;;;;;4994422;28;20412;-61
2023/07/09 03:29:58;;;;;;;3.53;2.35;;;;;;;;;;4994386;28;20038;-62
2023/07/09 03:32:25;;;;;;;2.80;2.05;;;;;;;;;;4994349;28;20030;-62
2023/07/09 03:34:53;;;;;;;3.58;2.20;;;;;;;;;;4994335;28;20542;-61
2023/07/09 03:37:20;;;;;;;3.50;2.20;;;;;;;;;;4993891;28;20408;-61
2023/07/09 03:39:47;;;;;;;4.47;1.95;;;;;;;;;;4994202;28;20030;-61
2023/07/09 03:42:14;;;;;;;3.13;2.05;;;;;;;;;;4994170;28;20141;-61
2023/07/09 03:44:41;;;;;;;3.65;2.35;;;;;;;;;;4993926;28;20034;-61
2023/07/09 03:47:08;;;;;;;3.15;2.00;;;;;;;;;;4994085;28;20385;-61
2023/07/09 03:49:35;;;;;;;4.65;2.38;;;;;;;;;;4993979;28;20062;-61
2023/07/09 03:52:02;;;;;;;3.53;2.30;;;;;;;;;;4993958;28;20018;-61
2023/07/09 03:54:29;;;;;;;2.45;1.90;;;;;;;;;;4993852;28;20037;-62
2023/07/09 03:56:56;;;;;;;3.25;2.10;;;;;;;;;;4993680;28;20041;-61
2023/07/09 03:59:23;;;;;;;4.18;2.22;;;;;;;;;;4993817;28;20061;-61
2023/07/09 04:01:51;;;;;;;4.53;2.10;;;;;;;;;;4993761;28;20030;-61
2023/07/09 04:04:20;;;;;;;3.28;2.30;;;;;;;;;;4993617;28;20433;-61
2023/07/09 04:06:48;;;;;;;3.90;2.50;;;;;;;;;;4993693;28;20117;-62
2023/07/09 04:09:15;;;;;;;3.28;2.25;;;;;;;;;;4993833;28;20117;-61
2023/07/09 04:11:42;;;;;;;2.75;1.92;;;;;;;;;;4993557;28;20061;-61
2023/07/09 04:14:09;;;;;;;2.10;1.90;;;;;;;;;;4993494;28;20030;-61
2023/07/09 04:16:36;;;;;;;4.07;2.03;;;;;;;;;;4993365;28;20033;-62
2023/07/09 04:19:03;;;;;;;2.35;1.90;;;;;;;;;;4993465;28;20507;-61
2023/07/09 04:21:30;;;;;;;3.97;2.33;;;;;;;;;;4993341;28;20042;-61
2023/07/09 04:23:57;;;;;;;3.30;2.00;;;;;;;;;;4993285;28;20034;-61
2023/07/09 04:26:24;;;;;;;3.25;2.00;;;;;;;;;;4993079;28;20030;-61
2023/07/09 04:28:51;;;;;;;3.00;2.15;;;;;;;;;;4993308;28;20026;-61
2023/07/09 04:31:18;;;;;;;3.20;2.13;;;;;;;;;;4993176;28;20496;-61
2023/07/09 04:33:46;;;;;;;4.38;2.10;;;;;;;;;;4993131;28;20036;-61
2023/07/09 04:36:13;;;;;;;3.35;2.17;;;;;;;;;;4993038;28;20070;-61
2023/07/09 04:38:40;;;;;;;3.83;2.10;;;;;;;;;;4993089;28;20504;-60
2023/07/09 04:41:07;;;;;;;2.67;2.03;;;;;;;;;;4975626;28;20046;-61
2023/07/09 04:43:34;;;;;;;2.88;2.10;;;;;;;;;;4975396;28;20038;-61
2023/07/09 04:46:01;;;;;;;3.05;2.10;;;;;;;;;;4992856;28;20034;-62
2023/07/09 04:48:28;;;;;;;2.85;2.00;;;;;;;;;;4992502;28;20480;-61
2023/07/09 04:50:55;;;;;;;4.53;2.17;;;;;;;;;;4992805;28;20093;-61
2023/07/09 04:53:24;;;;;;;2.72;1.90;;;;;;;;;;4992816;28;20496;-61
2023/07/09 04:55:51;;;;;;;3.10;1.75;;;;;;;;;;4992877;28;20046;-61
2023/07/09 04:58:21;;;;;;;2.63;1.83;;;;;;;;;;4992472;28;20436;-61
2023/07/09 05:00:49;;;;;;;4.35;1.90;;;;;;;;;;4992773;28;20038;-61
2023/07/09 05:03:16;;;;;;;3.80;2.20;;;;;;;;;;4992468;28;20047;-61
2023/07/09 05:05:46;;;;;;;3.25;2.10;;;;;;;;;;4992507;28;20069;-61
2023/07/09 05:08:14;;;;;;;2.83;1.90;;;;;;;;;;4992669;28;20030;-61
2023/07/09 05:10:44;;;;;;;4.35;2.10;;;;;;;;;;4992567;28;20028;-61
2023/07/09 05:13:11;;;;;;;3.03;1.85;;;;;;;;;;4992558;28;20085;-61
2023/07/09 05:15:41;;;;;;;3.05;2.00;;;;;;;;;;4992496;28;20464;-61
2023/07/09 05:18:08;;;;;;;2.42;1.85;;;;;;;;;;4992484;28;20026;-61
2023/07/09 05:20:35;;;;;;;3.33;2.10;;;;;;;;;;4992364;28;20031;-61
2023/07/09 05:23:02;;;;;;;2.17;1.67;;;;;;;;;;4992381;28;20081;-61
2023/07/09 05:25:29;;;;;;;4.28;2.00;;;;;;;;;;4992375;28;20608;-62
2023/07/09 05:27:56;;;;;;;4.22;2.20;;;;;;;;;;4992356;28;20030;-61
2023/07/09 05:30:23;;;;;;;3.90;2.10;;;;;;;;;;4992350;28;20039;-61
2023/07/09 05:32:53;;;;;;;3.58;2.20;;;;;;;;;;4992292;28;20080;-61
2023/07/09 05:35:20;;;;;;;3.10;2.05;;;;;;;;;;4992102;28;20069;-62
2023/07/09 05:37:47;;;;;;;2.78;2.00;;;;;;;;;;4992344;28;20108;-61
2023/07/09 05:40:14;;;;;;;3.67;2.00;;;;;;;;;;4992194;28;20030;-61
2023/07/09 05:42:41;;;;;;;2.97;1.90;;;;;;;;;;4992268;28;20018;-62
2023/07/09 05:45:09;;;;;;;2.92;1.98;;;;;;;;;;4992063;28;20695;-61
2023/07/09 05:47:36;;;;;;;3.03;1.70;;;;;;;;;;4992245;28;20037;-61
2023/07/09 05:50:03;;;;;;;4.28;2.30;;;;;;;;;;4992160;28;20045;-62
2023/07/09 05:52:30;;;;;;;4.70;2.17;;;;;;;;;;4974636;28;20553;-61
2023/07/09 05:54:57;;;;;;;2.67;1.83;;;;;;;;;;4992005;28;20034;-61
2023/07/09 05:57:24;;;;;;;2.20;1.60;;;;;;;;;;4991823;28;20050;-61
2023/07/09 05:59:51;;;;;;;2.90;2.03;;;;;;;;;;4992501;28;20026;-61
2023/07/09 06:02:19;;;;;;;2.22;1.77;;;;;;;;;;4994852;28;20080;-61
2023/07/09 06:04:49;;;;;;;2.47;1.60;;;;;;;;;;4995814;28;20489;-62
2023/07/09 06:07:18;;;;;;;2.60;1.90;;;;;;;;;;4995763;28;20030;-61
2023/07/09 06:09:45;;;;;;;2.53;1.70;;;;;;;;;;4995754;28;20069;-61
2023/07/09 06:12:13;;;;;;;3.22;1.92;;;;;;;;;;4995808;28;20054;-61
2023/07/09 06:14:40;;;;;;;2.70;2.00;;;;;;;;;;4995638;28;20038;-61
2023/07/09 06:17:07;;;;;;;2.65;1.80;;;;;;;;;;4995752;28;20026;-61
2023/07/09 06:19:34;;;;;;;2.90;1.80;;;;;;;;;;4995533;28;20388;-61
2023/07/09 06:22:01;;;;;;;3.03;1.75;;;;;;;;;;4995665;28;20033;-61
2023/07/09 06:24:28;;;;;;;2.55;1.90;;;;;;;;;;4995380;28;20061;-62
2023/07/09 06:26:55;;;;;;;3.85;2.00;;;;;;;;;;4995581;28;20041;-61
2023/07/09 06:29:22;;;;;;;3.60;1.85;;;;;;;;;;4995492;28;20133;-61
2023/07/09 06:31:50;;;;;;;2.58;1.70;;;;;;;;;;5150599;23;20060;-51
2023/07/09 06:34:17;;;;;;;3.40;1.92;;;;;;;;;;5054295;28;20025;-52
2023/07/09 06:36:44;;;;;;;3.35;1.92;;;;;;;;;;5054716;28;20029;-48
2023/07/09 06:39:11;;;;;;;3.50;1.95;;;;;;;;;;5054675;28;20748;-50
2023/07/09 06:41:38;;;;;;;2.63;1.98;;;;;;;;;;5054486;28;20017;-53
2023/07/09 06:44:06;;;;;;;3.45;1.90;;;;;;;;;;5054417;28;20044;-52
2023/07/09 06:46:33;;;;;;;3.30;1.98;;;;;;;;;;5054509;28;20051;-49
2023/07/09 06:49:01;;;;;;;2.88;1.90;;;;;;;;;;5054449;28;20493;-50
2023/07/09 06:51:28;;;;;;;2.22;1.70;;;;;;;;;;5054261;28;20036;-51
2023/07/09 06:53:55;;;;;;;3.50;1.92;;;;;;;;;;5054365;28;20040;-50
2023/07/09 06:56:22;;;;;;;3.00;1.90;;;;;;;;;;5054296;28;20024;-50
2023/07/09 06:58:49;;;;;;;2.10;1.55;;;;;;;;;;5054259;28;20017;-53
2023/07/09 07:01:16;;;;;;;3.38;1.83;;;;;;;;;;5053910;28;20029;-49
2023/07/09 07:03:43;;;;;;;2.42;1.70;;;;;;;;;;5054076;28;20087;-48
2023/07/09 07:06:11;;;;;;;2.22;1.60;;;;;;;;;;5054157;28;20086;-53
2023/07/09 07:08:37;;;;;;;2.40;1.58;;;;;;;;;;5054042;28;20029;-47
2023/07/09 07:11:06;;;;;;;3.20;2.00;;;;;;;;;;5053912;28;20100;-50
2023/07/09 07:13:35;;;;;;;3.17;2.00;;;;;;;;;;5053204;28;20104;-49
2023/07/09 07:16:12;;;;;;;2.58;1.67;;;;;;;;;;5053919;28;20021;-49
2023/07/09 07:18:39;;;;;;;2.28;1.60;;;;;;;;;;5053783;28;20021;-51
2023/07/09 07:21:07;;;;;;;4.00;2.00;;;;;;;;;;5053711;28;20017;-49
2023/07/09 07:23:34;;;;;;;2.38;1.73;;;;;;;;;;5053448;28;20040;-52
2023/07/09 07:26:01;;;;;;;3.55;2.03;;;;;;;;;;5053571;28;20390;-51
2023/07/09 07:28:28;;;;;;;2.75;1.70;;;;;;;;;;5053695;28;20108;-51
2023/07/09 07:31:05;;;;;;;3.35;1.90;;;;;;;;;;5053585;28;20528;-52
2023/07/09 07:33:32;;;;;;;2.78;1.90;;;;;;;;;;5053438;28;20079;-53
2023/07/09 07:35:59;;;;;;;3.05;1.83;;;;;;;;;;5053687;28;20086;-50
2023/07/09 07:38:26;;;;;;;3.15;1.85;;;;;;;;;;5053376;28;20421;-51
2023/07/09 07:40:54;;;;;;;2.75;1.70;;;;;;;;;;5053693;28;20025;-50
2023/07/09 07:43:21;;;;;;;3.03;1.70;;;;;;;;;;5053338;28;20037;-51
2023/07/09 07:45:48;;;;;;;4.13;1.92;;;;;;;;;;5053294;28;20020;-53
2023/07/09 07:48:16;;;;;;;2.47;1.80;;;;;;;;;;5053342;28;20028;-50
2023/07/09 07:50:45;;;;;;;3.47;2.13;;;;;;;;;;5053320;28;20132;-51
2023/07/09 07:53:13;;;;;;;2.50;1.80;;;;;;;;;;5053116;28;20032;-52
2023/07/09 07:55:40;;;;;;;3.17;1.95;;;;;;;;;;5052976;28;20038;-49
2023/07/09 07:58:09;;;;;;;2.50;1.90;;;;;;;;;;5052963;28;20174;-47
2023/07/09 08:00:36;;;;;;;3.00;1.80;;;;;;;;;;5052916;28;20114;-48
2023/07/09 08:03:04;;;;;;;2.72;1.85;;;;;;;;;;5052835;28;20766;-49
2023/07/09 08:05:31;;;;;;;2.75;1.52;;;;;;;;;;5052854;28;20033;-49
2023/07/09 08:07:58;;;;;;;3.00;1.80;;;;;;;;;;5052905;28;20048;-51
2023/07/09 08:10:25;;;;;;;3.50;1.90;;;;;;;;;;5052743;28;20167;-51
2023/07/09 08:12:56;;;;;;;2.15;1.60;;;;;;;;;;5052790;28;20082;-51
2023/07/09 08:15:24;;;;;;;2.40;1.70;;;;;;;;;;5052653;28;20029;-54
2023/07/09 08:17:51;;;;;;;3.00;1.83;;;;;;;;;;5052610;28;20391;-53
2023/07/09 08:20:18;;;;;;;2.92;1.88;;;;;;;;;;5052719;28;20021;-50
2023/07/09 08:22:46;;;;;;;3.22;1.60;;;;;;;;;;5052566;28;20031;-54
2023/07/09 08:25:13;;;;;;;2.10;1.73;;;;;;;;;;5051620;28;20040;-50
2023/07/09 08:27:40;;;;;;;2.30;1.70;;;;;;;;;;5052566;28;20035;-53
2023/07/09 08:30:07;;;;;;;3.25;2.03;;;;;;;;;;5052498;28;20430;-51
2023/07/09 08:32:34;;;;;;;3.70;1.98;;;;;;;;;;5052275;28;20498;-54
2023/07/09 08:35:01;;;;;;;2.97;1.77;;;;;;;;;;5052452;28;20032;-54
2023/07/09 08:37:28;;;;;;;2.20;1.70;;;;;;;;;;5052359;28;20027;-53
2023/07/09 08:39:55;;;;;;;2.90;1.80;;;;;;;;;;5052344;28;20437;-49
2023/07/09 08:42:42;;;;;;;3.85;1.98;;;;;;;;;;5052207;28;20024;-51
2023/07/09 08:45:20;;;;;;;2.67;1.70;;;;;;;;;;5052039;28;20442;-52
2023/07/09 08:47:47;;;;;;;4.32;1.75;;;;;;;;;;5052176;28;20071;-47
2023/07/09 08:50:16;;;;;;;2.50;1.67;;;;;;;;;;5052194;28;20071;-53
2023/07/09 08:52:45;;;;;;;2.38;1.60;;;;;;;;;;5052059;28;20033;-51
2023/07/09 08:55:12;;;;;;;2.63;1.80;;;;;;;;;;5052096;28;20541;-51
2023/07/09 08:57:41;;;;;;;1.50;1.40;;;;;;;;;;5052039;28;20048;-51
2023/07/09 09:00:18;;;;;;;1.75;1.50;;;;;;;;;;5052018;28;20434;-51
2023/07/09 09:02:53;;;;;;;3.55;1.98;;;;;;;;;;5051896;28;20436;-49
2023/07/09 09:05:21;;;;;;;3.08;1.80;;;;;;;;;;5051933;28;20040;-52
2023/07/09 09:07:53;;;;;;;2.15;1.67;;;;;;;;;;5051828;28;20027;-51
2023/07/09 09:10:35;;;;;;;2.10;1.60;;;;;;;;;;5051729;28;20029;-48
2023/07/09 09:13:16;;;;;;;3.22;1.77;;;;;;;;;;5033681;28;20029;-48
2023/07/09 09:15:45;;;;;;;2.20;1.60;;;;;;;;;;5051618;28;20029;-51
2023/07/09 09:18:20;;;;;;;2.65;1.70;;;;;;;;;;5051713;28;20483;-51
2023/07/09 09:20:58;;;;;;;1.95;1.50;;;;;;;;;;5051582;28;20025;-49
2023/07/09 09:23:29;;;;;;;3.30;1.65;;;;;;;;;;5051600;28;20079;-50
2023/07/09 09:25:57;;;;;;;2.13;1.67;;;;;;;;;;5051687;28;20668;-53
2023/07/09 09:28:26;;;;;;;2.28;1.70;;;;;;;;;;5051640;28;20385;-47
2023/07/09 09:30:53;;;;;;;2.67;1.88;;;;;;;;;;5051350;28;20025;-52
2023/07/09 09:33:20;;;;;;;2.20;1.60;;;;;;;;;;5051431;28;20079;-48
2023/07/09 09:35:47;;;;;;;2.63;1.80;;;;;;;;;;5051154;28;20386;-48
2023/07/09 09:38:18;;;;;;;2.60;1.50;;;;;;;;;;5051544;28;20025;-53
2023/07/09 09:40:45;;;;;;;2.33;1.60;;;;;;;;;;5051366;28;20053;-51
2023/07/09 09:43:14;;;;;;;3.72;1.80;;;;;;;;;;5051464;28;20386;-48
2023/07/09 09:45:41;;;;;;;2.53;1.75;;;;;;;;;;5051460;28;20017;-50
2023/07/09 09:48:34;;;;;;;2.40;1.70;;;;;;;;;;5051433;28;20017;-48
2023/07/09 09:51:04;;;;;;;2.00;1.65;;;;;;;;;;5049449;28;20118;-53
2023/07/09 09:53:38;;;;;;;2.15;1.50;;;;;;;;;;5051448;28;20090;-51
2023/07/09 09:56:06;;;;;;;2.20;1.42;;;;;;;;;;5033342;28;20104;-54
2023/07/09 09:58:34;;;;;;;2.03;1.50;;;;;;;;;;5051410;28;20017;-53
2023/07/09 10:01:01;;;;;;;1.77;1.42;;;;;;;;;;5051083;28;20475;-52
2023/07/09 10:03:34;;;;;;;1.85;1.40;;;;;;;;;;5051209;28;20430;-52
2023/07/09 10:06:06;;;;;;;2.38;1.48;;;;;;;;;;5051306;28;20017;-48
2023/07/09 10:08:40;;;;;;;2.08;1.63;;;;;;;;;;5051268;28;20032;-51
2023/07/09 10:11:16;;;;;;;1.80;1.50;;;;;;;;;;5051274;28;20115;-50
2023/07/09 10:13:45;;;;;;;2.17;1.70;;;;;;;;;;5051222;28;20025;-52
2023/07/09 10:16:36;;;;;;;3.55;1.50;;;;;;;;;;5051399;28;20519;-51
2023/07/09 10:19:03;;;;;;;1.88;1.33;;;;;;;;;;5050949;28;20398;-48
2023/07/09 10:21:34;;;;;;;2.25;1.40;;;;;;;;;;5051130;28;20043;-51
2023/07/09 10:24:12;;;;;;;1.60;1.50;;;;;;;;;;5051057;28;20043;-51
2023/07/09 10:26:41;;;;;;;3.03;1.67;;;;;;;;;;5051112;28;20032;-52
2023/07/09 10:29:17;;;;;;;1.90;1.65;;;;;;;;;;5051055;28;20363;-52
2023/07/09 10:31:50;;;;;;;2.20;1.73;;;;;;;;;;5050837;28;20049;-53
2023/07/09 10:34:47;;;;;;;2.45;1.58;;;;;;;;;;5051035;28;20478;-51
2023/07/09 10:37:35;;;;;;;1.88;1.63;;;;;;;;;;5042129;28;20156;-50
2023/07/09 10:40:05;;;;;;;1.88;1.50;;;;;;;;;;5050977;28;20025;-50
2023/07/09 10:42:46;;;;;;;1.77;1.50;;;;;;;;;;5050671;28;20029;-51
2023/07/09 10:45:15;;;;;;;1.67;1.58;;;;;;;;;;5050755;28;20029;-48
2023/07/09 10:47:46;;;;;;;1.75;1.48;;;;;;;;;;5052523;28;20114;-50
2023/07/09 10:50:18;;;;;;;1.85;1.60;;;;;;;;;;5054427;28;20532;-49
2023/07/09 10:52:49;;;;;;;1.77;1.48;;;;;;;;;;5054414;28;20031;-52
2023/07/09 10:55:19;;;;;;;2.03;1.30;;;;;;;;;;5054223;28;20039;-53
2023/07/09 10:57:49;;;;;;;1.80;1.58;;;;;;;;;;5054242;28;20017;-49
2023/07/09 11:00:18;;;;;;;2.03;1.55;;;;;;;;;;5054233;28;20056;-51
2023/07/09 11:02:46;;;;;;;1.83;1.30;;;;;;;;;;5054142;28;20060;-52
2023/07/09 11:05:13;;;;;;;1.55;1.38;;;;;;;;;;5054154;28;20052;-51
2023/07/09 11:07:53;;;;;;;2.30;1.60;;;;;;;;;;5054102;28;20029;-50
2023/07/09 11:10:30;;;;;;;1.55;1.38;;;;;;;;;;5053947;28;20055;-51
2023/07/09 11:13:02;;;;;;;2.65;1.60;;;;;;;;;;5054062;28;20029;-48
2023/07/09 11:15:41;;;;;;;2.10;1.45;;;;;;;;;;5054053;28;20020;-47
2023/07/09 11:18:11;;;;;;;1.48;1.38;;;;;;;;;;5053945;28;20025;-50
2023/07/09 11:20:42;;;;;;;1.67;1.40;;;;;;;;;;5053711;28;20048;-53
2023/07/09 11:23:24;;;;;;;1.70;1.60;;;;;;;;;;5053835;28;20098;-49
2023/07/09 11:26:11;;;;;;;1.75;1.50;;;;;;;;;;5053823;28;20491;-49
2023/07/09 11:28:39;;;;;;;2.00;1.35;;;;;;;;;;5053746;28;20496;-52
2023/07/09 11:31:08;;;;;;;1.73;1.50;;;;;;;;;;5053565;28;20505;-49
2023/07/09 11:33:45;;;;;;;1.73;1.45;;;;;;;;;;5053498;28;20072;-54
2023/07/09 11:36:15;;;;;;;2.38;1.77;;;;;;;;;;5053548;28;20441;-49
2023/07/09 11:38:43;;;;;;;1.88;1.45;;;;;;;;;;5035534;28;20017;-49
2023/07/09 11:41:28;;;;;;;1.65;1.38;;;;;;;;;;5053378;28;20108;-52
2023/07/09 11:44:03;;;;;;;2.00;1.50;;;;;;;;;;5053377;28;20033;-48
2023/07/09 11:46:31;;;;;;;1.70;1.52;;;;;;;;;;5053425;28;20029;-50
2023/07/09 11:49:00;;;;;;;1.90;1.50;;;;;;;;;;5053345;28;20032;-50
2023/07/09 11:51:49;;;;;;;1.90;1.70;;;;;;;;;;5053052;28;20036;-47
2023/07/09 11:54:16;;;;;;;1.73;1.48;;;;;;;;;;5053055;28;20111;-53
2023/07/09 11:56:53;;;;;;;2.13;1.60;;;;;;;;;;5053200;28;20028;-52
2023/07/09 11:59:20;;;;;;;1.90;1.52;;;;;;;;;;5053021;28;20021;-52
2023/07/09 12:01:53;;;;;;;1.50;1.40;;;;;;;;;;5053027;28;20013;-51
2023/07/09 12:04:20;;;;;;;;;;;;;;;;;;5053259;28;20439;-54
2023/07/09 12:06:47;;;;;;;2.20;1.90;;;;;;;;;;5052842;28;19999;-51
2023/07/09 12:09:18;;;;;;;1.55;1.45;;;;;;;;;;5053028;28;20017;-49
2023/07/09 12:11:47;;;;;;;1.98;1.50;;;;;;;;;;5052805;28;20045;-53
2023/07/09 12:14:15;;;;;;;1.45;1.20;;;;;;;;;;5052845;28;20052;-54
2023/07/09 12:16:47;;;;;;;1.67;1.50;;;;;;;;;;5052640;28;20025;-49
2023/07/09 12:19:14;;;;;;;1.70;1.40;;;;;;;;;;5052789;28;20021;-51
2023/07/09 12:21:46;;;;;;;1.65;1.52;;;;;;;;;;5052451;28;20394;-53
2023/07/09 12:24:23;;;;;;;2.15;1.70;;;;;;;;;;5052591;28;20029;-53
2023/07/09 12:27:00;;;;;;;1.60;1.50;;;;;;;;;;5052592;28;20056;-53
2023/07/09 12:29:31;;;;;;;2.10;1.42;;;;;;;;;;5052581;28;20032;-52
2023/07/09 12:31:59;;;;;;;1.55;1.33;;;;;;;;;;5052236;28;20106;-52
2023/07/09 12:34:26;;;;;;;2.33;1.75;;;;;;;;;;5052407;28;20036;-52
2023/07/09 12:36:56;;;;;;;1.40;1.30;;;;;;;;;;5052440;28;20065;-50
2023/07/09 12:39:25;;;;;;;1.50;1.40;;;;;;;;;;5052217;28;20025;-48
2023/07/09 12:41:55;;;;;;;1.60;1.50;;;;;;;;;;5052226;28;20033;-54
2023/07/09 12:44:23;;;;;;;1.67;1.50;;;;;;;;;;5052221;28;20487;-51
2023/07/09 12:46:51;;;;;;;1.60;1.40;;;;;;;;;;5052165;28;20024;-48
2023/07/09 12:49:28;;;;;;;2.45;1.67;;;;;;;;;;5052162;28;20068;-49
2023/07/09 12:51:59;;;;;;;1.75;1.50;;;;;;;;;;5052063;28;20024;-52
2023/07/09 12:54:29;;;;;;;1.58;1.48;;;;;;;;;;5052134;28;20021;-53
2023/07/09 12:56:56;;;;;;;1.83;1.60;;;;;;;;;;5052042;28;20025;-50
2023/07/09 12:59:26;;;;;;;1.83;1.58;;;;;;;;;;5052042;28;20021;-53
2023/07/09 13:02:04;;;;;;;2.58;1.20;;;;;;;;;;5051894;28;20487;-49
2023/07/09 13:04:37;;;;;;;1.40;1.30;;;;;;;;;;5051909;28;20029;-48
2023/07/09 13:07:05;;;;;;;1.50;1.40;;;;;;;;;;5052154;28;20025;-49
2023/07/09 13:09:32;;;;;;;1.98;1.52;;;;;;;;;;5051302;28;20483;-52
2023/07/09 13:12:00;;;;;;;1.73;1.40;;;;;;;;;;5051757;28;20031;-51
2023/07/09 13:14:28;;;;;;;1.65;1.48;;;;;;;;;;5051808;28;20032;-52
2023/07/09 13:17:03;;;;;;;1.80;1.42;;;;;;;;;;5051719;28;20060;-48
2023/07/09 13:19:30;;;;;;;1.65;1.40;;;;;;;;;;5051790;28;20474;-52
2023/07/09 13:21:57;;;;;;;1.58;1.48;;;;;;;;;;5051593;28;20037;-49
2023/07/09 13:24:26;;;;;;;1.92;1.55;;;;;;;;;;5051555;28;20394;-49
2023/07/09 13:26:53;;;;;;;1.50;1.40;;;;;;;;;;5051676;28;20021;-51
2023/07/09 13:29:21;;;;;;;1.63;1.40;;;;;;;;;;5051606;28;20025;-53
2023/07/09 13:31:48;;;;;;;1.40;1.30;;;;;;;;;;5051196;28;20025;-52
2023/07/09 13:34:22;;;;;;;1.63;1.33;;;;;;;;;;5051433;28;20048;-50
2023/07/09 13:36:50;;;;;;;1.50;1.30;;;;;;;;;;5051576;28;20103;-52
2023/07/09 13:39:17;;;;;;;2.28;1.60;;;;;;;;;;5051260;28;20429;-52
2023/07/09 13:41:45;;;;;;;2.58;2.03;;;;;;;;;;5051408;28;20055;-51
2023/07/09 13:44:17;;;;;;;1.98;1.45;;;;;;;;;;5051464;28;20091;-51
2023/07/09 13:46:45;;;;;;;2.00;1.50;;;;;;;;;;5051476;28;20486;-49
2023/07/09 13:49:18;;;;;;;1.70;1.42;;;;;;;;;;5051417;28;20478;-53
2023/07/09 13:51:47;;;;;;;1.60;1.50;;;;;;;;;;5051251;28;20397;-51
2023/07/09 13:54:20;;;;;;;1.88;1.45;;;;;;;;;;5051397;28;20509;-49
2023/07/09 13:56:47;;;;;;;1.60;1.45;;;;;;;;;;5051158;28;20044;-49
2023/07/09 13:59:15;;;;;;;1.50;1.40;;;;;;;;;;5051434;28;20029;-48
2023/07/09 14:01:43;;;;;;;1.58;1.45;;;;;;;;;;5051070;28;20032;-50
2023/07/09 14:04:11;;;;;;;1.77;1.52;;;;;;;;;;5051187;28;20091;-51
2023/07/09 14:06:39;;;;;;;4.10;1.67;;;;;;;;;;5051279;28;20021;-50
2023/07/09 14:09:06;;;;;;;2.10;1.40;;;;;;;;;;5051234;28;20028;-52
2023/07/09 14:11:33;;;;;;;2.22;1.50;;;;;;;;;;5051088;28;20092;-53
2023/07/09 14:14:00;;;;;;;1.90;1.70;;;;;;;;;;5051215;28;20075;-48
2023/07/09 14:16:27;;;;;;;1.92;1.73;;;;;;;;;;5051167;28;20021;-47
2023/07/09 14:18:54;;;;;;;1.88;1.55;;;;;;;;;;5051158;28;20028;-53
2023/07/09 14:21:28;;;;;;;1.65;1.33;;;;;;;;;;5051057;28;20395;-48
2023/07/09 14:23:55;;;;;;;1.50;1.40;;;;;;;;;;5054716;28;20040;-51
2023/07/09 14:26:22;;;;;;;1.77;1.40;;;;;;;;;;5054939;28;20025;-52
2023/07/09 14:28:49;;;;;;;3.67;1.50;;;;;;;;;;5054874;28;20068;-52
2023/07/09 14:31:21;;;;;;;1.55;1.42;;;;;;;;;;5054806;28;20032;-48
2023/07/09 14:33:48;;;;;;;1.65;1.38;;;;;;;;;;5054611;28;20095;-49
2023/07/09 14:36:15;;;;;;;1.90;1.70;;;;;;;;;;5055019;28;20082;-51
2023/07/09 14:38:42;;;;;;;1.98;1.65;;;;;;;;;;5054687;28;20021;-51
2023/07/09 14:41:19;;;;;;;1.83;1.45;;;;;;;;;;5054565;28;20025;-51
2023/07/09 14:43:46;;;;;;;2.03;1.50;;;;;;;;;;5054505;28;20025;-49
2023/07/09 14:46:13;;;;;;;1.90;1.50;;;;;;;;;;5036566;28;20565;-50
2023/07/09 14:48:40;;;;;;;1.63;1.45;;;;;;;;;;5054467;28;20032;-53
2023/07/09 14:51:14;;;;;;;2.08;1.50;;;;;;;;;;5036393;28;20513;-51
2023/07/09 14:53:41;;;;;;;1.90;1.60;;;;;;;;;;5054343;28;20044;-52
2023/07/09 14:56:10;;;;;;;1.65;1.55;;;;;;;;;;5054371;28;20021;-50